Time;durP1;ratioP1;P1;durP2;ratioP2;P2;SDS_P1;SDS_P2;PMS_P1;PMS_P2;Temp;Humidity;BMP_temperature;BMP_pressure;BME280_temperature;BME280_humidity;BME280_pressure;Samples;Min_cycle;Max_cycle;Signal;HPM_P1;HPM_P2
2022/09/02 00:01:23;;;;;;;4.07;2.40;;;;;;;;;;6131882;28;20271;-85
2022/09/02 00:04:23;;;;;;;;;;;;;;;;;;6149417;28;20439;-85
2022/09/02 00:07:23;;;;;;;5.95;2.08;;;;;;;;;;6140072;28;20413;-85
2022/09/02 00:10:23;;;;;;;5.70;2.80;;;;;;;;;;6147450;28;20047;-85
2022/09/02 00:13:23;;;;;;;6.20;2.60;;;;;;;;;;6148230;28;20027;-85
2022/09/02 00:16:25;;;;;;;2.90;2.40;;;;;;;;;;6130108;28;20038;-85
2022/09/02 00:19:25;;;;;;;6.33;3.67;;;;;;;;;;6147133;29;20479;-85
2022/09/02 00:22:26;;;;;;;5.43;3.60;;;;;;;;;;6146932;28;20030;-85
2022/09/02 00:25:26;;;;;;;6.22;2.90;;;;;;;;;;6147279;29;20032;-86
2022/09/02 00:28:26;;;;;;;11.27;4.05;;;;;;;;;;6147548;28;20031;-85
2022/09/02 00:31:27;;;;;;;6.77;3.17;;;;;;;;;;6147229;28;20031;-85
2022/09/02 00:34:27;;;;;;;5.30;3.10;;;;;;;;;;6129657;29;20138;-85
2022/09/02 00:37:28;;;;;;;8.07;3.50;;;;;;;;;;6142249;28;20386;-85
2022/09/02 00:40:29;;;;;;;7.90;3.60;;;;;;;;;;6146157;28;20098;-85
2022/09/02 00:43:48;;;;;;;14.63;5.57;;;;;;;;;;6146878;28;20027;-85
2022/09/02 00:46:48;;;;;;;9.65;5.70;;;;;;;;;;6127514;28;20102;-85
2022/09/02 00:49:50;;;;;;;9.70;3.57;;;;;;;;;;6147487;28;20415;-85
2022/09/02 00:52:52;;;;;;;8.25;4.28;;;;;;;;;;6147201;28;20354;-86
2022/09/02 00:55:52;;;;;;;11.02;4.55;;;;;;;;;;6129259;29;20467;-85
2022/09/02 00:58:54;;;;;;;11.82;5.18;;;;;;;;;;6147260;29;20047;-85
2022/09/02 01:01:54;;;;;;;10.05;4.20;;;;;;;;;;6145825;28;20019;-85
2022/09/02 01:04:55;;;;;;;10.35;4.22;;;;;;;;;;6126907;28;20132;-85
2022/09/02 01:07:56;;;;;;;8.02;3.70;;;;;;;;;;6145077;28;20035;-85
2022/09/02 01:10:56;;;;;;;8.27;4.37;;;;;;;;;;6146146;28;20038;-85
2022/09/02 01:13:58;;;;;;;8.37;4.90;;;;;;;;;;6147305;28;20081;-85
2022/09/02 01:16:59;;;;;;;10.75;4.53;;;;;;;;;;6141643;28;20027;-85
2022/09/02 01:20:04;;;;;;;6.70;3.50;;;;;;;;;;6146511;28;20027;-85
2022/09/02 01:23:05;;;;;;;7.85;3.38;;;;;;;;;;6145683;28;20023;-86
2022/09/02 01:26:06;;;;;;;7.17;3.80;;;;;;;;;;6145460;28;20026;-85
2022/09/02 01:29:07;;;;;;;23.45;5.07;;;;;;;;;;6145178;28;20262;-85
2022/09/02 01:32:07;;;;;;;8.63;3.45;;;;;;;;;;6129570;28;20368;-85
2022/09/02 01:35:07;;;;;;;8.77;4.03;;;;;;;;;;6128721;28;20098;-84
2022/09/02 01:38:07;;;;;;;8.23;4.20;;;;;;;;;;6146459;28;20644;-84
2022/09/02 01:41:08;;;;;;;8.88;3.55;;;;;;;;;;6146150;28;20011;-85
2022/09/02 01:44:09;;;;;;;9.38;4.00;;;;;;;;;;6130100;28;20015;-84
2022/09/02 01:47:13;;;;;;;6.03;4.07;;;;;;;;;;6145242;28;20470;-84
2022/09/02 01:50:14;;;;;;;8.38;4.03;;;;;;;;;;6129636;28;20039;-84
2022/09/02 01:53:14;;;;;;;9.03;4.33;;;;;;;;;;6145693;29;20074;-84
2022/09/02 01:56:15;;;;;;;5.78;3.38;;;;;;;;;;6146733;29;20276;-85
2022/09/02 01:59:16;;;;;;;6.97;3.85;;;;;;;;;;6132598;28;20020;-84
2022/09/02 02:02:18;;;;;;;9.30;3.88;;;;;;;;;;6150641;28;20216;-84
2022/09/02 02:05:19;;;;;;;6.68;3.78;;;;;;;;;;6150409;28;20023;-84
2022/09/02 02:08:19;;;;;;;10.55;4.28;;;;;;;;;;6148123;28;20070;-84
2022/09/02 02:11:21;;;;;;;6.90;4.10;;;;;;;;;;6132946;28;20019;-84
2022/09/02 02:14:21;;;;;;;5.75;3.13;;;;;;;;;;6150315;28;20027;-84
2022/09/02 02:17:21;;;;;;;4.07;2.90;;;;;;;;;;6150773;28;20014;-84
2022/09/02 02:20:21;;;;;;;8.23;3.83;;;;;;;;;;6133287;29;20026;-84
2022/09/02 02:23:23;;;;;;;10.57;4.53;;;;;;;;;;6150708;29;20314;-84
2022/09/02 02:26:23;;;;;;;6.72;3.67;;;;;;;;;;6150091;29;20278;-84
2022/09/02 02:29:23;;;;;;;6.57;4.00;;;;;;;;;;6150990;28;20438;-84
2022/09/02 02:32:25;;;;;;;4.73;3.43;;;;;;;;;;6150132;28;20774;-84
2022/09/02 02:35:26;;;;;;;7.15;3.38;;;;;;;;;;6150954;28;20074;-85
2022/09/02 02:38:26;;;;;;;6.83;3.63;;;;;;;;;;6132376;29;20031;-85
2022/09/02 02:41:28;;;;;;;9.50;3.60;;;;;;;;;;6149458;28;20031;-85
2022/09/02 02:44:28;;;;;;;8.82;3.60;;;;;;;;;;6150032;28;20302;-85
2022/09/02 02:47:29;;;;;;;11.10;4.55;;;;;;;;;;6132961;29;20074;-85
2022/09/02 02:50:29;;;;;;;9.57;4.13;;;;;;;;;;6132824;29;20604;-85
2022/09/02 02:53:30;;;;;;;4.63;2.95;;;;;;;;;;6132405;29;20038;-85
2022/09/02 02:56:30;;;;;;;4.75;3.88;;;;;;;;;;6148709;28;20099;-85
2022/09/02 02:59:30;;;;;;;6.40;3.70;;;;;;;;;;6150158;28;20095;-85
2022/09/02 03:02:33;;;;;;;8.40;3.87;;;;;;;;;;6133128;29;20131;-85
2022/09/02 03:05:34;;;;;;;9.55;4.70;;;;;;;;;;6131842;28;20030;-85
2022/09/02 03:08:35;;;;;;;4.75;3.10;;;;;;;;;;6146586;28;20649;-85
2022/09/02 03:11:35;;;;;;;9.90;3.80;;;;;;;;;;6152617;28;20082;-85
2022/09/02 03:14:36;;;;;;;7.35;3.83;;;;;;;;;;6132417;29;20031;-85
2022/09/02 03:17:37;;;;;;;7.95;3.72;;;;;;;;;;6132260;29;20029;-85
2022/09/02 03:20:38;;;;;;;5.17;3.37;;;;;;;;;;6149449;29;20023;-85
2022/09/02 03:23:38;;;;;;;8.53;3.93;;;;;;;;;;6132698;29;20387;-85
2022/09/02 03:26:39;;;;;;;8.53;3.30;;;;;;;;;;6148289;28;20082;-85
2022/09/02 03:29:40;;;;;;;5.25;3.70;;;;;;;;;;6132740;29;20035;-85
2022/09/02 03:32:40;;;;;;;6.03;4.30;;;;;;;;;;6145650;28;20030;-84
2022/09/02 03:35:42;;;;;;;4.63;3.45;;;;;;;;;;6129757;29;20267;-85
2022/09/02 03:38:42;;;;;;;6.90;4.20;;;;;;;;;;6142140;28;20031;-85
2022/09/02 03:41:43;;;;;;;7.32;3.53;;;;;;;;;;6148000;28;20111;-85
2022/09/02 03:44:43;;;;;;;8.18;3.72;;;;;;;;;;6149005;28;20079;-85
2022/09/02 03:47:49;;;;;;;9.50;3.57;;;;;;;;;;6148591;28;20679;-85
2022/09/02 03:50:49;;;;;;;8.50;3.67;;;;;;;;;;6148414;28;20743;-85
2022/09/02 03:53:50;;;;;;;8.50;4.37;;;;;;;;;;6131674;29;20038;-85
2022/09/02 03:56:50;;;;;;;9.07;4.63;;;;;;;;;;6136823;28;20034;-85
2022/09/02 03:59:50;;;;;;;7.77;3.63;;;;;;;;;;6148679;28;20114;-84
2022/09/02 04:02:51;;;;;;;8.85;5.50;;;;;;;;;;6131876;29;20023;-85
2022/09/02 04:05:52;;;;;;;7.67;4.17;;;;;;;;;;6130906;29;20015;-85
2022/09/02 04:08:52;;;;;;;8.38;4.38;;;;;;;;;;6147576;28;20050;-85
2022/09/02 04:11:53;;;;;;;7.43;4.07;;;;;;;;;;6143749;28;20048;-84
2022/09/02 04:14:53;;;;;;;8.80;4.80;;;;;;;;;;6133735;28;20546;-85
2022/09/02 04:17:53;;;;;;;6.97;4.25;;;;;;;;;;6130896;29;20054;-84
2022/09/02 04:20:58;;;;;;;7.20;3.37;;;;;;;;;;6147194;28;20123;-85
2022/09/02 04:23:58;;;;;;;8.90;4.03;;;;;;;;;;6148361;28;20485;-85
2022/09/02 04:26:58;;;;;;;6.38;4.07;;;;;;;;;;6146069;28;20020;-85
2022/09/02 04:29:58;;;;;;;8.25;4.55;;;;;;;;;;6121078;29;20568;-85
2022/09/02 04:32:58;;;;;;;7.40;3.70;;;;;;;;;;6129342;28;20783;-85
2022/09/02 04:35:59;;;;;;;8.50;4.53;;;;;;;;;;6130128;29;20266;-85
2022/09/02 04:38:59;;;;;;;11.36;4.68;;;;;;;;;;6138550;29;20027;-84
2022/09/02 04:41:59;;;;;;;8.07;3.97;;;;;;;;;;6140094;29;20034;-84
2022/09/02 04:44:59;;;;;;;6.80;4.30;;;;;;;;;;6125140;29;20122;-84
2022/09/02 04:48:00;;;;;;;8.05;4.55;;;;;;;;;;6139276;29;20371;-85
2022/09/02 04:51:07;;;;;;;9.37;4.80;;;;;;;;;;6142914;28;20046;-85
2022/09/02 04:54:08;;;;;;;13.85;4.68;;;;;;;;;;6140674;29;20027;-84
2022/09/02 04:57:08;;;;;;;12.23;5.32;;;;;;;;;;6120028;29;20471;-84
2022/09/02 05:00:09;;;;;;;16.70;4.73;;;;;;;;;;6130040;29;20016;-84
2022/09/02 05:03:10;;;;;;;10.80;4.03;;;;;;;;;;6129846;28;20078;-84
2022/09/02 05:06:11;;;;;;;12.50;4.35;;;;;;;;;;6148286;28;20027;-85
2022/09/02 05:09:12;;;;;;;8.55;4.53;;;;;;;;;;6120160;28;20134;-85
2022/09/02 05:12:13;;;;;;;6.50;3.37;;;;;;;;;;6123895;29;20070;-85
2022/09/02 05:15:13;;;;;;;6.43;3.75;;;;;;;;;;6128213;29;20031;-84
2022/09/02 05:18:13;;;;;;;10.70;4.20;;;;;;;;;;6142365;29;20027;-85
2022/09/02 05:21:14;;;;;;;5.63;3.07;;;;;;;;;;6133429;29;20032;-84
2022/09/02 05:24:14;;;;;;;6.33;2.90;;;;;;;;;;6137628;29;20768;-84
2022/09/02 05:27:15;;;;;;;9.60;3.60;;;;;;;;;;6142926;28;20027;-85
2022/09/02 05:30:15;;;;;;;9.83;3.30;;;;;;;;;;6137534;28;20028;-85
2022/09/02 05:33:15;;;;;;;5.57;3.10;;;;;;;;;;6132207;28;20391;-85
2022/09/02 05:36:17;;;;;;;4.23;2.53;;;;;;;;;;6125256;29;20059;-85
2022/09/02 05:39:17;;;;;;;3.03;2.15;;;;;;;;;;6136089;29;20098;-85
2022/09/02 05:42:19;;;;;;;3.78;2.13;;;;;;;;;;6126415;29;20030;-85
2022/09/02 05:45:19;;;;;;;4.95;2.08;;;;;;;;;;6146176;29;20031;-85
2022/09/02 05:51:40;;;;;;;4.20;1.90;;;;;;;;;;6148034;29;20035;-85
2022/09/02 05:54:41;;;;;;;5.30;1.70;;;;;;;;;;6147810;28;20626;-85
2022/09/02 05:57:42;;;;;;;6.27;2.03;;;;;;;;;;6142373;28;20015;-84
2022/09/02 06:00:42;;;;;;;6.38;2.22;;;;;;;;;;6141902;28;20031;-85
2022/09/02 06:03:43;;;;;;;5.25;2.13;;;;;;;;;;6148766;28;20011;-86
2022/09/02 06:06:43;;;;;;;6.53;2.13;;;;;;;;;;6142799;28;20042;-85
2022/09/02 06:09:44;;;;;;;4.27;1.70;;;;;;;;;;6131141;28;20431;-85
2022/09/02 06:12:44;;;;;;;3.63;1.50;;;;;;;;;;6145375;28;20027;-86
2022/09/02 06:15:44;;;;;;;4.90;1.52;;;;;;;;;;6139157;28;20042;-86
2022/09/02 06:18:45;;;;;;;4.47;1.77;;;;;;;;;;6118198;29;20797;-86
2022/09/02 06:21:46;;;;;;;6.85;2.25;;;;;;;;;;6124468;29;20033;-86
2022/09/02 06:24:46;;;;;;;6.35;2.13;;;;;;;;;;6128027;29;20018;-86
2022/09/02 06:27:46;;;;;;;2.97;1.77;;;;;;;;;;6142972;29;20031;-86
2022/09/02 06:30:47;;;;;;;4.45;1.77;;;;;;;;;;6127455;29;20473;-86
2022/09/02 06:33:50;;;;;;;4.47;1.98;;;;;;;;;;6132199;29;20094;-86
2022/09/02 06:36:50;;;;;;;8.43;1.92;;;;;;;;;;6150050;29;20050;-85
2022/09/02 06:39:50;;;;;;;4.53;2.20;;;;;;;;;;6149716;28;20410;-86
2022/09/02 06:42:52;;;;;;;6.43;1.70;;;;;;;;;;6131085;28;20019;-86
2022/09/02 06:45:52;;;;;;;5.57;1.90;;;;;;;;;;6130612;28;20493;-85
2022/09/02 06:48:52;;;;;;;4.93;1.63;;;;;;;;;;6149839;28;20106;-85
2022/09/02 06:51:55;;;;;;;4.27;2.00;;;;;;;;;;6132053;29;20446;-86
2022/09/02 06:54:55;;;;;;;4.88;1.95;;;;;;;;;;6148655;28;20093;-85
2022/09/02 06:57:55;;;;;;;2.63;1.80;;;;;;;;;;6148177;28;20027;-86
2022/09/02 07:00:55;;;;;;;2.17;1.63;;;;;;;;;;6149048;28;20031;-86
2022/09/02 07:07:14;;;;;;;4.00;1.70;;;;;;;;;;6148718;28;20027;-86
2022/09/02 07:10:15;;;;;;;2.40;1.40;;;;;;;;;;6148926;28;20058;-86
2022/09/02 07:13:15;;;;;;;;;;;;;;;;;;6130683;29;20027;-86
2022/09/02 07:16:15;;;;;;;5.88;1.60;;;;;;;;;;6131946;29;20377;-86
2022/09/02 07:19:16;;;;;;;4.40;2.53;;;;;;;;;;6148424;28;20035;-86
2022/09/02 07:22:17;;;;;;;6.85;1.35;;;;;;;;;;6146804;29;20045;-86
2022/09/02 07:25:17;;;;;;;1.92;1.02;;;;;;;;;;6147068;28;20680;-86
2022/09/02 07:28:18;;;;;;;1.83;1.33;;;;;;;;;;6129648;28;20026;-86
2022/09/02 07:31:18;;;;;;;3.07;1.23;;;;;;;;;;6148653;28;20262;-86
2022/09/02 07:34:20;;;;;;;5.13;1.48;;;;;;;;;;6131138;29;20495;-86
2022/09/02 07:37:20;;;;;;;4.57;1.50;;;;;;;;;;6148950;29;20027;-86
2022/09/02 07:40:20;;;;;;;;;;;;;;;;;;6132006;29;20038;-86
2022/09/02 07:43:21;;;;;;;3.83;1.08;;;;;;;;;;6147150;28;19910;-86
2022/09/02 07:46:21;;;;;;;4.78;1.30;;;;;;;;;;6147602;29;20039;-86
2022/09/02 07:49:21;;;;;;;1.33;1.03;;;;;;;;;;6130520;29;20418;-86
2022/09/02 07:52:21;;;;;;;;;;;;;;;;;;6146127;29;20390;-86
2022/09/02 07:55:22;;;;;;;4.93;1.00;;;;;;;;;;6130857;28;20346;-86
2022/09/02 07:58:23;;;;;;;2.38;1.08;;;;;;;;;;6128144;28;20025;-86
2022/09/02 08:01:23;;;;;;;3.77;1.00;;;;;;;;;;6149032;29;20050;-86
2022/09/02 08:04:23;;;;;;;0.83;0.77;;;;;;;;;;6147323;28;20023;-86
2022/09/02 08:07:24;;;;;;;4.20;1.00;;;;;;;;;;6127924;28;20018;-86
2022/09/02 08:10:26;;;;;;;;;;;;;;;;;;6128966;28;20058;-86
2022/09/02 08:13:26;;;;;;;1.85;0.98;;;;;;;;;;6140272;28;20389;-87
2022/09/02 08:16:27;;;;;;;;;;;;;;;;;;6147926;28;20036;-86
2022/09/02 08:19:27;;;;;;;1.13;0.80;;;;;;;;;;6130020;29;19914;-86
2022/09/02 08:22:28;;;;;;;;;;;;;;;;;;6128940;28;20023;-87
2022/09/02 08:25:28;;;;;;;5.47;0.90;;;;;;;;;;6128090;28;20309;-86
2022/09/02 08:28:30;;;;;;;2.43;0.70;;;;;;;;;;6128984;29;20027;-86
2022/09/02 08:31:31;;;;;;;4.03;1.33;;;;;;;;;;6147982;29;20019;-86
2022/09/02 08:34:31;;;;;;;1.80;0.95;;;;;;;;;;6146031;29;20074;-86
2022/09/02 08:37:32;;;;;;;1.83;1.00;;;;;;;;;;6138107;28;20019;-86
2022/09/02 08:40:38;;;;;;;2.30;1.08;;;;;;;;;;6129034;29;20015;-86
2022/09/02 08:43:39;;;;;;;2.42;0.98;;;;;;;;;;6146477;28;20494;-86
2022/09/02 08:46:40;;;;;;;0.85;0.70;;;;;;;;;;6146183;28;20023;-86
2022/09/02 08:49:42;;;;;;;2.53;0.70;;;;;;;;;;6130806;28;20030;-86
2022/09/02 08:53:01;;;;;;;1.27;0.85;;;;;;;;;;6129656;28;20372;-86
2022/09/02 08:56:03;;;;;;;1.30;0.65;;;;;;;;;;6129534;29;20030;-86
2022/09/02 08:59:05;;;;;;;0.70;0.40;;;;;;;;;;6125270;29;20034;-86
2022/09/02 09:02:06;;;;;;;1.00;0.73;;;;;;;;;;6142183;29;20015;-86
2022/09/02 09:05:33;;;;;;;1.17;0.60;;;;;;;;;;6121527;29;20015;-86
2022/09/02 09:08:39;;;;;;;2.03;0.70;;;;;;;;;;6143039;28;20111;-86
2022/09/02 09:11:44;;;;;;;1.45;0.70;;;;;;;;;;6130928;29;20111;-85
2022/09/02 09:14:47;;;;;;;1.02;0.70;;;;;;;;;;6122890;29;20478;-86
2022/09/02 09:17:51;;;;;;;1.33;0.70;;;;;;;;;;6123621;29;20015;-86
2022/09/02 09:20:51;;;;;;;1.52;0.88;;;;;;;;;;6144917;28;20027;-86
2022/09/02 09:23:52;;;;;;;0.50;0.50;;;;;;;;;;6133779;29;20095;-85
2022/09/02 09:26:53;;;;;;;2.70;0.68;;;;;;;;;;6132356;29;20106;-86
2022/09/02 09:29:54;;;;;;;1.65;0.50;;;;;;;;;;6145375;28;20106;-86
2022/09/02 09:32:56;;;;;;;3.30;0.73;;;;;;;;;;6134263;28;20029;-86
2022/09/02 09:35:57;;;;;;;2.72;0.75;;;;;;;;;;6126801;29;20516;-86
2022/09/02 09:38:57;;;;;;;2.05;1.00;;;;;;;;;;6145426;28;20058;-86
2022/09/02 09:42:02;;;;;;;2.60;0.70;;;;;;;;;;6143155;28;20031;-86
2022/09/02 09:45:14;;;;;;;3.80;1.00;;;;;;;;;;6152804;28;20419;-86
2022/09/02 09:48:15;;;;;;;0.98;0.70;;;;;;;;;;6152577;28;20074;-86
2022/09/02 09:51:15;;;;;;;1.83;0.87;;;;;;;;;;6136002;28;20182;-86
2022/09/02 09:54:16;;;;;;;4.90;0.70;;;;;;;;;;6155329;28;20016;-86
2022/09/02 09:57:16;;;;;;;;;;;;;;;;;;6137085;29;20078;-86
2022/09/02 10:00:17;;;;;;;3.22;0.90;;;;;;;;;;6151153;28;19914;-86
2022/09/02 10:03:21;;;;;;;5.50;0.60;;;;;;;;;;6136845;28;20023;-86
2022/09/02 10:06:22;;;;;;;3.63;1.33;;;;;;;;;;6154627;29;20015;-86
2022/09/02 10:09:30;;;;;;;5.22;1.02;;;;;;;;;;6136649;28;20039;-86
2022/09/02 10:12:32;;;;;;;1.63;0.73;;;;;;;;;;6135638;29;20074;-85
2022/09/02 10:15:40;;;;;;;2.40;0.68;;;;;;;;;;6135682;29;20027;-86
2022/09/02 10:18:54;;;;;;;0.95;0.85;;;;;;;;;;6135247;28;20101;-86
2022/09/02 10:22:04;;;;;;;1.27;0.70;;;;;;;;;;6126875;29;20020;-86
2022/09/02 10:25:23;;;;;;;2.88;1.25;;;;;;;;;;6132929;29;20058;-85
2022/09/02 10:28:23;;;;;;;2.30;0.82;;;;;;;;;;6145525;29;20030;-85
2022/09/02 10:31:27;;;;;;;2.13;0.52;;;;;;;;;;6150375;28;20162;-85
2022/09/02 10:34:54;;;;;;;5.60;0.63;;;;;;;;;;6132525;28;20102;-85
2022/09/02 10:37:57;;;;;;;1.45;0.80;;;;;;;;;;6110091;29;20039;-85
2022/09/02 10:41:05;;;;;;;3.20;1.10;;;;;;;;;;6131879;29;20848;-86
2022/09/02 10:44:11;;;;;;;1.02;0.93;;;;;;;;;;6137786;28;20500;-86
2022/09/02 10:47:26;;;;;;;1.38;0.70;;;;;;;;;;6132169;29;20089;-86
2022/09/02 10:50:36;;;;;;;2.72;0.88;;;;;;;;;;6145986;28;20027;-86
2022/09/02 10:53:49;;;;;;;3.85;0.70;;;;;;;;;;6143008;29;20031;-86
2022/09/02 10:56:58;;;;;;;0.88;0.80;;;;;;;;;;6126311;29;20106;-85
2022/09/02 11:00:06;;;;;;;3.00;0.80;;;;;;;;;;6145784;28;20123;-85
2022/09/02 11:03:13;;;;;;;1.30;0.73;;;;;;;;;;6140941;29;20012;-85
2022/09/02 11:06:19;;;;;;;1.10;0.60;;;;;;;;;;6133034;28;20022;-86
2022/09/02 11:09:28;;;;;;;3.15;0.70;;;;;;;;;;6149547;28;20051;-85
2022/09/02 11:12:33;;;;;;;1.60;0.95;;;;;;;;;;6146255;28;20118;-87
2022/09/02 11:15:45;;;;;;;0.90;0.52;;;;;;;;;;6128016;29;20023;-86
2022/09/02 11:18:46;;;;;;;1.88;1.17;;;;;;;;;;6125996;29;20234;-86
2022/09/02 11:21:52;;;;;;;2.00;0.93;;;;;;;;;;6148143;28;20023;-86
2022/09/02 11:25:07;;;;;;;1.52;0.80;;;;;;;;;;6127145;29;20046;-86
2022/09/02 11:28:07;;;;;;;1.52;0.60;;;;;;;;;;6143300;29;20102;-84
2022/09/02 11:31:27;;;;;;;3.03;0.60;;;;;;;;;;6148494;28;20023;-87
2022/09/02 11:34:39;;;;;;;3.08;0.73;;;;;;;;;;6135781;29;20042;-86
2022/09/02 11:37:48;;;;;;;1.33;0.60;;;;;;;;;;6147118;28;20030;-86
2022/09/02 11:40:58;;;;;;;1.15;0.60;;;;;;;;;;6125054;29;20035;-86
2022/09/02 11:44:13;;;;;;;3.60;1.02;;;;;;;;;;6141027;29;20081;-86
2022/09/02 11:47:23;;;;;;;2.45;0.50;;;;;;;;;;6145590;28;20012;-86
2022/09/02 11:50:37;;;;;;;1.13;0.68;;;;;;;;;;6127419;29;20447;-86
2022/09/02 11:53:39;;;;;;;2.53;0.80;;;;;;;;;;6141232;29;20452;-87
2022/09/02 11:56:42;;;;;;;4.22;0.93;;;;;;;;;;6124374;29;20070;-86
2022/09/02 11:59:51;;;;;;;1.00;0.60;;;;;;;;;;6125600;29;20515;-86
2022/09/02 12:03:03;;;;;;;2.10;0.80;;;;;;;;;;6144442;29;20031;-87
2022/09/02 12:06:07;;;;;;;4.82;1.05;;;;;;;;;;6144009;29;20016;-86
2022/09/02 12:09:08;;;;;;;3.38;1.05;;;;;;;;;;6122900;28;20160;-86
2022/09/02 12:12:08;;;;;;;1.63;0.95;;;;;;;;;;6139530;28;20019;-86
2022/09/02 12:15:15;;;;;;;1.67;0.70;;;;;;;;;;6125669;28;20015;-85
2022/09/02 12:18:27;;;;;;;2.15;0.70;;;;;;;;;;6127238;29;20022;-86
2022/09/02 12:21:30;;;;;;;1.75;1.05;;;;;;;;;;6147181;28;20434;-85
2022/09/02 12:24:46;;;;;;;3.20;1.17;;;;;;;;;;6134961;28;20027;-86
2022/09/02 12:27:47;;;;;;;2.33;0.47;;;;;;;;;;6136798;29;20078;-86
2022/09/02 12:31:07;;;;;;;0.83;0.80;;;;;;;;;;6138132;29;20035;-85
2022/09/02 12:34:20;;;;;;;5.03;0.52;;;;;;;;;;6116353;29;20167;-86
2022/09/02 12:37:39;;;;;;;1.98;0.52;;;;;;;;;;6118083;29;20376;-85
2022/09/02 12:40:50;;;;;;;1.05;0.65;;;;;;;;;;6136985;29;20401;-84
2022/09/02 12:44:02;;;;;;;1.10;0.60;;;;;;;;;;6142130;28;20374;-85
2022/09/02 12:47:22;;;;;;;3.67;0.82;;;;;;;;;;6128846;29;20074;-86
2022/09/02 12:50:34;;;;;;;2.25;0.85;;;;;;;;;;6130565;29;20043;-86
2022/09/02 12:53:42;;;;;;;2.05;0.73;;;;;;;;;;6129790;29;20031;-87
2022/09/02 12:56:48;;;;;;;1.77;0.60;;;;;;;;;;6127693;28;20054;-85
2022/09/02 12:59:57;;;;;;;1.08;0.63;;;;;;;;;;6123972;29;20026;-86
2022/09/02 13:03:07;;;;;;;2.20;1.05;;;;;;;;;;6125429;29;20039;-85
2022/09/02 13:06:18;;;;;;;2.65;0.80;;;;;;;;;;6121608;28;20035;-85
2022/09/02 13:09:40;;;;;;;2.37;0.80;;;;;;;;;;6142080;28;20935;-85
2022/09/02 13:12:46;;;;;;;1.17;0.80;;;;;;;;;;6139145;29;20075;-86
2022/09/02 13:15:46;;;;;;;1.48;1.05;;;;;;;;;;6146070;29;20019;-86
2022/09/02 13:18:58;;;;;;;1.00;0.70;;;;;;;;;;6144986;28;20121;-86
2022/09/02 13:22:14;;;;;;;1.20;0.80;;;;;;;;;;6124430;29;20019;-86
2022/09/02 13:25:20;;;;;;;0.90;0.60;;;;;;;;;;6143922;28;20027;-85
2022/09/02 13:28:30;;;;;;;3.35;0.80;;;;;;;;;;6144376;28;20494;-85
2022/09/02 13:31:30;;;;;;;1.35;0.70;;;;;;;;;;6124724;29;20054;-85
2022/09/02 13:34:30;;;;;;;4.73;0.80;;;;;;;;;;6138344;29;20027;-85
2022/09/02 13:37:38;;;;;;;1.80;0.93;;;;;;;;;;6140687;29;20038;-85
2022/09/02 13:40:38;;;;;;;0.70;0.70;;;;;;;;;;6119469;29;20118;-85
2022/09/02 13:43:39;;;;;;;5.32;0.90;;;;;;;;;;6134369;29;20813;-85
2022/09/02 13:46:47;;;;;;;0.95;0.60;;;;;;;;;;6137470;28;20023;-85
2022/09/02 13:49:49;;;;;;;1.88;0.70;;;;;;;;;;6119584;29;20083;-85
2022/09/02 13:52:52;;;;;;;2.55;1.30;;;;;;;;;;6137732;28;20027;-85
2022/09/02 13:55:53;;;;;;;1.77;0.73;;;;;;;;;;6130310;29;20099;-84
2022/09/02 13:58:57;;;;;;;3.38;1.00;;;;;;;;;;6132488;29;20063;-85
2022/09/02 14:01:57;;;;;;;1.05;0.63;;;;;;;;;;6148810;28;20410;-85
2022/09/02 14:04:57;;;;;;;1.53;0.60;;;;;;;;;;6128137;28;20034;-85
2022/09/02 14:07:59;;;;;;;1.03;0.83;;;;;;;;;;6130091;28;20506;-85
2022/09/02 14:11:01;;;;;;;;;;;;;;;;;;6149685;28;20031;-85
2022/09/02 14:14:01;;;;;;;1.38;0.80;;;;;;;;;;6132528;29;20016;-85
2022/09/02 14:17:19;;;;;;;6.20;1.30;;;;;;;;;;6149119;28;20051;-84
2022/09/02 14:20:20;;;;;;;1.42;0.65;;;;;;;;;;6127180;29;20508;-84
2022/09/02 14:23:21;;;;;;;6.63;2.38;;;;;;;;;;6131828;29;20023;-84
2022/09/02 14:26:27;;;;;;;3.03;1.10;;;;;;;;;;6132513;29;20094;-85
2022/09/02 14:29:30;;;;;;;17.10;9.13;;;;;;;;;;6149014;28;20438;-85
2022/09/02 14:32:31;;;;;;;2.92;0.80;;;;;;;;;;6146002;28;20043;-85
2022/09/02 14:35:31;;;;;;;6.83;2.90;;;;;;;;;;6118964;29;20027;-84
2022/09/02 14:38:34;;;;;;;6.10;3.37;;;;;;;;;;6146429;28;20102;-85
2022/09/02 14:41:37;;;;;;;7.43;1.13;;;;;;;;;;6149310;28;20042;-85
2022/09/02 14:44:39;;;;;;;7.07;1.38;;;;;;;;;;6148972;29;20085;-85
2022/09/02 14:47:40;;;;;;;2.05;1.10;;;;;;;;;;6146322;28;20019;-85
2022/09/02 14:50:40;;;;;;;4.10;1.35;;;;;;;;;;6131187;29;20034;-84
2022/09/02 14:53:42;;;;;;;1.87;1.03;;;;;;;;;;6130596;29;20430;-85
2022/09/02 14:56:44;;;;;;;4.18;1.90;;;;;;;;;;6132146;29;20037;-85
2022/09/02 14:59:44;;;;;;;2.38;1.15;;;;;;;;;;6142605;28;20027;-85
2022/09/02 15:02:47;;;;;;;5.03;1.87;;;;;;;;;;6149289;29;20023;-85
2022/09/02 15:05:48;;;;;;;1.45;0.90;;;;;;;;;;6147469;28;20027;-85
2022/09/02 15:08:49;;;;;;;1.73;1.00;;;;;;;;;;6148359;28;20130;-85
2022/09/02 15:11:50;;;;;;;5.38;1.25;;;;;;;;;;6131673;29;20062;-85
2022/09/02 15:14:51;;;;;;;3.50;1.75;;;;;;;;;;6130445;29;20237;-85
2022/09/02 15:17:51;;;;;;;2.83;2.07;;;;;;;;;;6148572;29;20027;-85
2022/09/02 15:20:52;;;;;;;2.97;1.10;;;;;;;;;;6130345;28;20520;-85
2022/09/02 15:23:53;;;;;;;3.40;0.90;;;;;;;;;;6132493;28;20122;-85
2022/09/02 15:26:53;;;;;;;2.13;1.27;;;;;;;;;;6149666;29;20467;-85
2022/09/02 15:29:53;;;;;;;3.90;1.27;;;;;;;;;;6130526;29;20082;-85
2022/09/02 15:32:53;;;;;;;4.20;0.80;;;;;;;;;;6126697;28;20027;-85
2022/09/02 15:35:54;;;;;;;1.70;1.07;;;;;;;;;;6131633;29;20479;-86
2022/09/02 15:38:55;;;;;;;4.40;1.30;;;;;;;;;;6124598;29;20107;-85
2022/09/02 15:41:55;;;;;;;3.27;1.30;;;;;;;;;;6147015;28;20501;-86
2022/09/02 15:44:55;;;;;;;3.90;1.40;;;;;;;;;;6146628;28;20399;-85
2022/09/02 15:47:57;;;;;;;3.07;1.10;;;;;;;;;;6145987;28;20016;-84
2022/09/02 15:50:57;;;;;;;;;;;;;;;;;;6128948;29;20498;-85
2022/09/02 15:54:02;;;;;;;1.20;0.98;;;;;;;;;;6126679;29;20404;-85
2022/09/02 15:57:02;;;;;;;4.00;0.90;;;;;;;;;;6129394;28;20023;-85
2022/09/02 16:00:03;;;;;;;4.03;1.57;;;;;;;;;;6123744;29;20676;-85
2022/09/02 16:03:03;;;;;;;2.77;1.20;;;;;;;;;;6124337;29;20370;-85
2022/09/02 16:06:04;;;;;;;6.33;1.40;;;;;;;;;;6137029;28;20024;-85
2022/09/02 16:09:05;;;;;;;5.28;1.35;;;;;;;;;;6143629;28;20099;-84
2022/09/02 16:12:05;;;;;;;9.93;2.10;;;;;;;;;;6125656;28;20801;-84
2022/09/02 16:15:06;;;;;;;3.13;1.17;;;;;;;;;;6125893;29;20035;-84
2022/09/02 16:18:06;;;;;;;4.43;1.40;;;;;;;;;;6141854;28;20486;-84
2022/09/02 16:21:07;;;;;;;3.40;1.47;;;;;;;;;;6116502;29;20115;-85
2022/09/02 16:24:08;;;;;;;8.25;2.20;;;;;;;;;;6118446;29;20023;-85
2022/09/02 16:27:08;;;;;;;5.13;1.47;;;;;;;;;;6129094;29;20024;-85
2022/09/02 16:30:09;;;;;;;4.77;1.93;;;;;;;;;;6129087;29;20119;-85
2022/09/02 16:33:09;;;;;;;5.67;1.57;;;;;;;;;;6146163;28;20023;-85
2022/09/02 16:36:10;;;;;;;4.87;1.97;;;;;;;;;;6128858;29;20023;-85
2022/09/02 16:39:11;;;;;;;6.87;2.50;;;;;;;;;;6122670;29;20035;-85
2022/09/02 16:42:12;;;;;;;5.18;2.20;;;;;;;;;;6142127;28;20034;-85
2022/09/02 16:45:12;;;;;;;7.63;2.70;;;;;;;;;;6145768;28;20463;-85
2022/09/02 16:48:12;;;;;;;6.70;2.30;;;;;;;;;;6128486;29;20030;-85
2022/09/02 16:51:13;;;;;;;7.60;1.93;;;;;;;;;;6128809;29;20031;-86
2022/09/02 16:54:13;;;;;;;7.37;2.30;;;;;;;;;;6147025;28;20066;-85
2022/09/02 16:57:14;;;;;;;4.33;2.33;;;;;;;;;;6145689;28;20027;-85
2022/09/02 17:00:14;;;;;;;5.53;2.40;;;;;;;;;;6143547;28;20030;-85
2022/09/02 17:03:14;;;;;;;6.53;2.30;;;;;;;;;;6119696;29;20059;-85
2022/09/02 17:06:15;;;;;;;8.33;2.10;;;;;;;;;;6127932;28;20062;-86
2022/09/02 17:09:15;;;;;;;7.67;2.80;;;;;;;;;;6126888;28;20051;-86
2022/09/02 17:12:16;;;;;;;4.40;1.77;;;;;;;;;;6128956;29;20670;-86
2022/09/02 17:15:16;;;;;;;4.63;2.40;;;;;;;;;;6145541;28;20030;-86
2022/09/02 17:18:16;;;;;;;5.13;2.33;;;;;;;;;;6129386;29;20114;-85
2022/09/02 17:21:19;;;;;;;8.60;3.43;;;;;;;;;;6130428;29;20024;-85
2022/09/02 17:24:21;;;;;;;7.85;3.92;;;;;;;;;;6142738;28;20082;-87
2022/09/02 17:27:21;;;;;;;9.25;3.38;;;;;;;;;;6129044;28;20050;-85
2022/09/02 17:30:22;;;;;;;8.03;3.73;;;;;;;;;;6133979;29;20387;-84
2022/09/02 17:33:22;;;;;;;8.00;3.53;;;;;;;;;;6131837;28;20809;-84
2022/09/02 17:36:24;;;;;;;9.67;5.07;;;;;;;;;;6129660;28;20055;-85
2022/09/02 17:39:25;;;;;;;10.32;4.68;;;;;;;;;;6134447;29;20438;-85
2022/09/02 17:42:25;;;;;;;6.70;3.63;;;;;;;;;;6134399;29;20023;-85
2022/09/02 17:45:25;;;;;;;8.87;4.03;;;;;;;;;;6127787;29;20024;-85
2022/09/02 17:48:26;;;;;;;4.67;3.00;;;;;;;;;;6143926;29;20065;-84
2022/09/02 17:51:26;;;;;;;6.90;3.95;;;;;;;;;;6143933;29;20118;-85
2022/09/02 17:54:26;;;;;;;6.27;3.07;;;;;;;;;;6141020;28;20028;-85
2022/09/02 17:57:31;;;;;;;9.77;2.93;;;;;;;;;;6144046;29;20117;-85
2022/09/02 18:00:34;;;;;;;5.25;2.90;;;;;;;;;;6147067;28;20065;-85
2022/09/02 18:03:52;;;;;;;5.70;2.38;;;;;;;;;;6128569;29;20034;-85
2022/09/02 18:06:56;;;;;;;8.45;3.03;;;;;;;;;;6123472;28;20031;-84
2022/09/02 18:09:56;;;;;;;3.92;2.35;;;;;;;;;;6145513;28;20055;-84
2022/09/02 18:12:57;;;;;;;6.33;2.50;;;;;;;;;;6133217;29;20039;-85
2022/09/02 18:16:01;;;;;;;7.50;2.90;;;;;;;;;;6130937;29;20555;-85
2022/09/02 18:19:12;;;;;;;7.63;3.00;;;;;;;;;;6149979;28;20114;-85
2022/09/02 18:22:21;;;;;;;8.27;2.30;;;;;;;;;;6150364;29;20023;-85
2022/09/02 18:25:42;;;;;;;3.22;1.90;;;;;;;;;;6150163;29;20450;-85